KCVO - Corvallis, OR
Updated: Sat, 22-Jul-2017 7:15am PDT
Clear
Clear
 Wind from calm
Wind: Calm
Temperature: 59°F , 15°C
Dew Point: 52°F , 11°C
Humidity: 77%
Barometer: 30.19 inHg , 1022.4 hPa
Clouds: Clear
Visibility: 10 miles , 16 km
2017/07/22 14:15 KCVO 221415Z 00000KT 10SM CLR 15/11 A3019 RMK AO1